Time;durP1;ratioP1;P1;durP2;ratioP2;P2;SDS_P1;SDS_P2;PMS_P1;PMS_P2;Temp;Humidity;BMP_temperature;BMP_pressure;BME280_temperature;BME280_humidity;BME280_pressure;Samples;Min_cycle;Max_cycle;Signal;HPM_P1;HPM_P2
2021/08/29 00:00:54;;;;;;;;;;;23.10;48.30;;;;;;491559;240;1524;-73
2021/08/29 00:02:55;;;;;;;;;;;22.90;48.60;;;;;;491550;240;1258;-73
2021/08/29 00:04:56;;;;;;;;;;;23.10;48.00;;;;;;491599;240;983;-73
2021/08/29 00:06:58;;;;;;;;;;;22.80;48.60;;;;;;491509;240;1205;-72
2021/08/29 00:08:59;;;;;;;;;;;22.70;48.90;;;;;;491513;240;1103;-73
2021/08/29 00:11:01;;;;;;;;;;;23.10;48.30;;;;;;491561;240;1205;-73
2021/08/29 00:13:02;;;;;;;;;;;22.90;48.60;;;;;;491581;240;990;-73
2021/08/29 00:15:03;;;;;;;;;;;22.90;48.40;;;;;;491590;240;1179;-73
2021/08/29 00:17:05;;;;;;;;;;;23.10;48.00;;;;;;491520;240;2132;-73
2021/08/29 00:19:06;;;;;;;;;;;23.40;47.60;;;;;;491618;240;977;-73
2021/08/29 00:21:07;;;;;;;;;;;23.30;47.80;;;;;;491579;240;1148;-73
2021/08/29 00:23:09;;;;;;;;;;;22.90;48.30;;;;;;491549;240;1079;-73
2021/08/29 00:25:10;;;;;;;;;;;23.10;48.40;;;;;;491686;240;1049;-73
2021/08/29 00:27:11;;;;;;;;;;;23.00;48.30;;;;;;491626;240;1165;-73
2021/08/29 00:29:12;;;;;;;;;;;23.20;48.10;;;;;;491628;240;1045;-73
2021/08/29 00:31:14;;;;;;;;;;;22.90;48.30;;;;;;491574;240;1234;-73
2021/08/29 00:33:15;;;;;;;;;;;22.80;48.70;;;;;;491629;240;1155;-73
2021/08/29 00:35:16;;;;;;;;;;;23.00;48.30;;;;;;491607;240;953;-73
2021/08/29 00:37:18;;;;;;;;;;;22.70;48.80;;;;;;491477;240;2181;-73
2021/08/29 00:39:19;;;;;;;;;;;22.90;48.60;;;;;;491593;240;1042;-73
2021/08/29 00:41:20;;;;;;;;;;;22.80;48.70;;;;;;491588;240;1188;-73
2021/08/29 00:43:22;;;;;;;;;;;22.90;48.40;;;;;;491625;240;1077;-73
2021/08/29 00:45:23;;;;;;;;;;;22.80;48.80;;;;;;491616;240;1121;-73
2021/08/29 00:47:24;;;;;;;;;;;22.70;48.90;;;;;;491622;240;1119;-73
2021/08/29 00:49:26;;;;;;;;;;;22.80;48.50;;;;;;491615;240;970;-73
2021/08/29 00:51:27;;;;;;;;;;;23.00;48.30;;;;;;491598;240;1181;-73
2021/08/29 00:53:32;;;;;;;;;;;23.20;47.80;;;;;;491586;240;1109;-73
2021/08/29 00:55:30;;;;;;;;;;;23.30;47.70;;;;;;491698;240;1408;-73
2021/08/29 00:57:31;;;;;;;;;;;23.20;48.00;;;;;;491549;240;2128;-73
2021/08/29 00:59:32;;;;;;;;;;;22.90;48.20;;;;;;491640;240;951;-73
2021/08/29 01:01:34;;;;;;;;;;;22.90;48.30;;;;;;491507;240;1282;-73
2021/08/29 01:03:35;;;;;;;;;;;22.90;48.00;;;;;;491631;240;1099;-73
2021/08/29 01:05:36;;;;;;;;;;;23.20;47.60;;;;;;491568;240;1630;-73
2021/08/29 01:07:38;;;;;;;;;;;23.00;48.20;;;;;;491539;240;1132;-73
2021/08/29 01:09:39;;;;;;;;;;;22.90;48.20;;;;;;491534;240;1016;-73
2021/08/29 01:11:40;;;;;;;;;;;23.00;48.20;;;;;;491526;240;1164;-73
2021/08/29 01:13:42;;;;;;;;;;;22.90;48.10;;;;;;491630;240;1070;-73
2021/08/29 01:15:43;;;;;;;;;;;22.80;48.60;;;;;;491685;240;1267;-73
2021/08/29 01:17:44;;;;;;;;;;;22.90;48.20;;;;;;491608;240;2176;-73
2021/08/29 01:19:46;;;;;;;;;;;23.10;47.80;;;;;;491700;240;987;-73
2021/08/29 01:21:47;;;;;;;;;;;23.10;47.80;;;;;;491473;240;1140;-73
2021/08/29 01:23:48;;;;;;;;;;;22.80;48.30;;;;;;491561;240;1536;-73
2021/08/29 01:25:50;;;;;;;;;;;22.80;48.50;;;;;;491559;240;1258;-73
2021/08/29 01:27:51;;;;;;;;;;;22.80;48.40;;;;;;491649;240;1186;-73
2021/08/29 01:29:52;;;;;;;;;;;22.80;48.50;;;;;;491733;240;1004;-73
2021/08/29 01:31:54;;;;;;;;;;;23.10;47.70;;;;;;491535;240;1194;-73
2021/08/29 01:33:55;;;;;;;;;;;23.30;47.10;;;;;;491617;240;1090;-73
2021/08/29 01:35:56;;;;;;;;;;;23.00;47.70;;;;;;491544;240;1272;-73
2021/08/29 01:37:58;;;;;;;;;;;23.00;48.10;;;;;;491524;240;2183;-73
2021/08/29 01:39:59;;;;;;;;;;;23.30;47.70;;;;;;491562;240;1034;-73
2021/08/29 01:42:01;;;;;;;;;;;22.90;48.10;;;;;;491507;240;1171;-73
2021/08/29 01:44:02;;;;;;;;;;;23.00;48.00;;;;;;491604;240;1013;-73
2021/08/29 01:46:03;;;;;;;;;;;23.00;47.70;;;;;;491492;240;1291;-73
2021/08/29 01:48:05;;;;;;;;;;;23.30;47.20;;;;;;491592;240;989;-73
2021/08/29 01:50:06;;;;;;;;;;;23.10;47.50;;;;;;491581;240;1249;-73
2021/08/29 01:52:07;;;;;;;;;;;22.90;48.10;;;;;;491714;240;1157;-73
2021/08/29 01:54:09;;;;;;;;;;;22.90;48.20;;;;;;491710;240;1094;-73
2021/08/29 01:56:10;;;;;;;;;;;23.30;47.60;;;;;;491611;240;1158;-73
2021/08/29 01:58:11;;;;;;;;;;;23.20;47.30;;;;;;491628;240;2183;-73
2021/08/29 02:00:12;;;;;;;;;;;23.30;47.60;;;;;;491700;240;1071;-73
2021/08/29 02:02:14;;;;;;;;;;;23.20;47.00;;;;;;491561;240;1265;-73
2021/08/29 02:04:15;;;;;;;;;;;23.30;46.90;;;;;;491658;240;1012;-73
2021/08/29 02:06:16;;;;;;;;;;;23.40;47.00;;;;;;491577;240;1299;-73
2021/08/29 02:08:18;;;;;;;;;;;23.40;47.00;;;;;;491659;240;1061;-73
2021/08/29 02:10:19;;;;;;;;;;;23.10;47.40;;;;;;491600;240;966;-73
2021/08/29 02:12:21;;;;;;;;;;;23.00;47.70;;;;;;491671;240;1144;-73
2021/08/29 02:14:22;;;;;;;;;;;23.20;47.40;;;;;;491650;240;1050;-73
2021/08/29 02:16:23;;;;;;;;;;;22.90;47.70;;;;;;491642;240;1212;-73
2021/08/29 02:18:25;;;;;;;;;;;22.90;47.90;;;;;;491654;240;2171;-73
2021/08/29 02:20:26;;;;;;;;;;;22.90;47.80;;;;;;491594;240;1031;-73
2021/08/29 02:22:27;;;;;;;;;;;23.30;47.30;;;;;;491547;240;1103;-73
2021/08/29 02:24:29;;;;;;;;;;;23.10;47.60;;;;;;491608;240;1065;-73
2021/08/29 02:26:30;;;;;;;;;;;23.00;47.60;;;;;;491524;240;1239;-73
2021/08/29 02:28:31;;;;;;;;;;;23.00;47.70;;;;;;491724;240;1103;-73
2021/08/29 02:30:33;;;;;;;;;;;23.00;47.50;;;;;;491664;240;1031;-73
2021/08/29 02:32:34;;;;;;;;;;;22.90;47.70;;;;;;491637;240;1177;-73
2021/08/29 02:34:35;;;;;;;;;;;22.70;48.10;;;;;;491700;240;1035;-73
2021/08/29 02:36:37;;;;;;;;;;;22.70;48.10;;;;;;491548;240;1141;-73
2021/08/29 02:38:38;;;;;;;;;;;23.00;47.80;;;;;;491580;240;2124;-73
2021/08/29 02:40:40;;;;;;;;;;;22.80;47.90;;;;;;491609;240;1113;-73
2021/08/29 02:42:41;;;;;;;;;;;22.70;48.10;;;;;;491600;240;1467;-73
2021/08/29 02:44:42;;;;;;;;;;;22.70;48.20;;;;;;491724;240;1062;-73
2021/08/29 02:46:44;;;;;;;;;;;22.80;48.10;;;;;;491610;240;1582;-73
2021/08/29 02:48:45;;;;;;;;;;;22.80;47.80;;;;;;491706;240;1103;-73
2021/08/29 02:50:46;;;;;;;;;;;22.70;47.90;;;;;;491604;240;1029;-73
2021/08/29 02:52:47;;;;;;;;;;;22.60;48.10;;;;;;491586;240;1148;-73
2021/08/29 02:54:49;;;;;;;;;;;22.50;48.40;;;;;;491569;240;975;-73
2021/08/29 02:56:50;;;;;;;;;;;22.70;48.30;;;;;;491719;240;1243;-73
2021/08/29 02:58:52;;;;;;;;;;;22.50;48.30;;;;;;491666;240;2187;-73
2021/08/29 03:00:53;;;;;;;;;;;22.40;48.70;;;;;;491613;240;1229;-74
2021/08/29 03:02:54;;;;;;;;;;;22.40;48.50;;;;;;491577;240;1083;-73
2021/08/29 03:04:55;;;;;;;;;;;22.40;48.60;;;;;;491631;240;989;-73
2021/08/29 03:06:57;;;;;;;;;;;22.50;48.30;;;;;;491614;240;1214;-73
2021/08/29 03:08:58;;;;;;;;;;;22.50;48.40;;;;;;491646;240;983;-73
2021/08/29 03:10:59;;;;;;;;;;;22.50;48.50;;;;;;491600;240;1159;-73
2021/08/29 03:13:01;;;;;;;;;;;22.70;48.10;;;;;;491623;240;1109;-73
2021/08/29 03:15:02;;;;;;;;;;;22.90;47.90;;;;;;491715;240;1056;-73
2021/08/29 03:17:03;;;;;;;;;;;22.70;48.00;;;;;;491601;240;1252;-73
2021/08/29 03:19:05;;;;;;;;;;;22.60;48.20;;;;;;491642;240;2191;-73
2021/08/29 03:21:06;;;;;;;;;;;22.80;48.00;;;;;;491624;240;1000;-73
2021/08/29 03:23:07;;;;;;;;;;;22.70;47.90;;;;;;491640;240;1126;-73
2021/08/29 03:25:09;;;;;;;;;;;22.50;48.30;;;;;;491653;240;945;-73
2021/08/29 03:27:10;;;;;;;;;;;22.60;48.30;;;;;;491556;240;1226;-73
2021/08/29 03:29:11;;;;;;;;;;;22.80;47.80;;;;;;491636;240;1103;-73
2021/08/29 03:31:13;;;;;;;;;;;22.70;48.00;;;;;;491607;240;1153;-73
2021/08/29 03:33:14;;;;;;;;;;;22.70;47.90;;;;;;491673;240;1161;-73
2021/08/29 03:35:15;;;;;;;;;;;22.50;48.40;;;;;;491649;240;1068;-73
2021/08/29 03:37:17;;;;;;;;;;;22.40;48.50;;;;;;491607;240;1167;-73
2021/08/29 03:39:18;;;;;;;;;;;22.50;48.60;;;;;;491625;240;2191;-73
2021/08/29 03:41:19;;;;;;;;;;;22.60;48.40;;;;;;491563;240;1081;-73
2021/08/29 03:43:21;;;;;;;;;;;22.60;48.20;;;;;;491559;240;989;-73
2021/08/29 03:45:22;;;;;;;;;;;22.60;48.10;;;;;;491588;240;1302;-73
2021/08/29 03:47:23;;;;;;;;;;;22.50;48.10;;;;;;491584;240;1280;-73
2021/08/29 03:49:25;;;;;;;;;;;22.40;48.60;;;;;;491654;240;1063;-73
2021/08/29 03:51:26;;;;;;;;;;;22.50;48.60;;;;;;491529;240;1384;-73
2021/08/29 03:53:27;;;;;;;;;;;22.60;48.30;;;;;;491579;240;987;-73
2021/08/29 03:55:28;;;;;;;;;;;22.40;48.30;;;;;;491642;240;1021;-73
2021/08/29 03:57:30;;;;;;;;;;;22.60;48.50;;;;;;491574;240;1024;-73
2021/08/29 03:59:32;;;;;;;;;;;22.70;47.90;;;;;;491685;240;2121;-73
2021/08/29 04:01:33;;;;;;;;;;;22.50;48.20;;;;;;491622;240;1031;-73
2021/08/29 04:03:34;;;;;;;;;;;22.90;47.60;;;;;;491639;240;1130;-73
2021/08/29 04:05:35;;;;;;;;;;;22.60;48.00;;;;;;491575;240;1051;-73
2021/08/29 04:07:37;;;;;;;;;;;23.10;47.60;;;;;;491610;240;1083;-73
2021/08/29 04:09:38;;;;;;;;;;;22.70;47.60;;;;;;491606;240;1043;-73
2021/08/29 04:11:39;;;;;;;;;;;22.80;47.80;;;;;;491510;240;1372;-73
2021/08/29 04:13:41;;;;;;;;;;;22.70;47.60;;;;;;491592;240;970;-73
2021/08/29 04:15:42;;;;;;;;;;;22.70;48.00;;;;;;491554;240;1029;-73
2021/08/29 04:17:43;;;;;;;;;;;22.40;48.30;;;;;;491555;240;1477;-73
2021/08/29 04:19:45;;;;;;;;;;;22.30;48.60;;;;;;491634;240;2228;-73
2021/08/29 04:21:46;;;;;;;;;;;22.70;47.80;;;;;;491539;240;1325;-73
2021/08/29 04:23:47;;;;;;;;;;;22.40;48.40;;;;;;491588;240;988;-73
2021/08/29 04:25:49;;;;;;;;;;;22.60;48.40;;;;;;491635;240;1277;-73
2021/08/29 04:27:50;;;;;;;;;;;22.60;48.10;;;;;;491544;240;1077;-73
2021/08/29 04:29:52;;;;;;;;;;;22.70;48.30;;;;;;491650;240;948;-73
2021/08/29 04:31:56;;;;;;;;;;;22.80;47.50;;;;;;491663;240;1187;-73
2021/08/29 04:33:54;;;;;;;;;;;22.70;47.70;;;;;;491637;240;1414;-73
2021/08/29 04:35:56;;;;;;;;;;;22.80;47.70;;;;;;491577;240;1188;-73
2021/08/29 04:37:57;;;;;;;;;;;22.90;47.50;;;;;;491617;240;1202;-73
2021/08/29 04:39:58;;;;;;;;;;;22.80;47.60;;;;;;491541;240;1022;-73
2021/08/29 04:42:00;;;;;;;;;;;23.00;47.50;;;;;;491581;240;1216;-73
2021/08/29 04:44:01;;;;;;;;;;;23.00;47.40;;;;;;491684;240;1130;-73
2021/08/29 04:46:04;;;;;;;;;;;23.20;46.90;;;;;;491559;240;1297;-73
2021/08/29 04:48:04;;;;;;;;;;;23.00;47.00;;;;;;491646;240;1388;-73
2021/08/29 04:50:05;;;;;;;;;;;22.80;47.40;;;;;;491697;240;1108;-74
2021/08/29 04:52:07;;;;;;;;;;;23.00;47.20;;;;;;491523;240;1188;-73
2021/08/29 04:54:08;;;;;;;;;;;23.40;46.60;;;;;;491596;240;1083;-73
2021/08/29 04:56:09;;;;;;;;;;;23.60;46.30;;;;;;491527;240;1153;-73
2021/08/29 04:58:10;;;;;;;;;;;23.20;46.70;;;;;;491641;240;2177;-73
2021/08/29 05:00:12;;;;;;;;;;;23.00;47.30;;;;;;491618;240;1103;-73
2021/08/29 05:02:13;;;;;;;;;;;23.30;46.60;;;;;;491609;240;1133;-73
2021/08/29 05:04:15;;;;;;;;;;;23.30;46.70;;;;;;491633;240;1190;-73
2021/08/29 05:06:16;;;;;;;;;;;23.10;47.00;;;;;;491619;240;1248;-73
2021/08/29 05:08:17;;;;;;;;;;;23.70;46.30;;;;;;491595;240;1065;-73
2021/08/29 05:10:18;;;;;;;;;;;23.50;46.70;;;;;;491627;240;1046;-73
2021/08/29 05:12:20;;;;;;;;;;;23.30;46.90;;;;;;491506;240;1091;-73
2021/08/29 05:14:21;;;;;;;;;;;23.30;47.00;;;;;;491678;240;1002;-73
2021/08/29 05:16:22;;;;;;;;;;;23.30;46.80;;;;;;491564;240;1107;-73
2021/08/29 05:18:24;;;;;;;;;;;23.10;47.10;;;;;;491563;240;2167;-73
2021/08/29 05:20:25;;;;;;;;;;;22.90;47.70;;;;;;491622;240;1149;-73
2021/08/29 05:22:26;;;;;;;;;;;23.20;47.00;;;;;;491536;240;1134;-73
2021/08/29 05:24:28;;;;;;;;;;;23.60;46.70;;;;;;491613;240;977;-73
2021/08/29 05:26:29;;;;;;;;;;;23.30;47.10;;;;;;491543;240;1331;-73
2021/08/29 05:28:30;;;;;;;;;;;23.30;47.30;;;;;;491597;240;1137;-73
2021/08/29 05:30:32;;;;;;;;;;;23.20;47.10;;;;;;491601;240;1221;-73
2021/08/29 05:32:33;;;;;;;;;;;23.20;47.20;;;;;;491477;240;1121;-73
2021/08/29 05:34:34;;;;;;;;;;;23.20;47.10;;;;;;491615;240;1186;-73
2021/08/29 05:36:36;;;;;;;;;;;23.20;47.20;;;;;;491487;240;1221;-73
2021/08/29 05:38:37;;;;;;;;;;;23.50;46.80;;;;;;491546;240;2187;-73
2021/08/29 05:40:38;;;;;;;;;;;23.30;47.20;;;;;;491537;240;1225;-73
2021/08/29 05:42:40;;;;;;;;;;;23.40;47.20;;;;;;491582;240;1084;-73
2021/08/29 05:44:41;;;;;;;;;;;23.70;46.80;;;;;;491640;240;1155;-73
2021/08/29 05:46:42;;;;;;;;;;;23.20;47.30;;;;;;491602;240;1130;-74
2021/08/29 05:48:45;;;;;;;;;;;23.20;47.40;;;;;;491667;240;1146;-73
2021/08/29 05:50:45;;;;;;;;;;;23.20;47.40;;;;;;491691;240;1419;-73
2021/08/29 05:52:46;;;;;;;;;;;23.30;47.20;;;;;;491526;240;1088;-73
2021/08/29 05:54:48;;;;;;;;;;;23.30;47.50;;;;;;491616;240;951;-73
2021/08/29 05:56:49;;;;;;;;;;;23.50;47.30;;;;;;491497;240;1219;-73
2021/08/29 05:58:50;;;;;;;;;;;23.20;47.70;;;;;;491590;240;2132;-73
2021/08/29 06:00:53;;;;;;;;;;;23.10;47.90;;;;;;491588;240;1185;-73
2021/08/29 06:02:53;;;;;;;;;;;23.20;47.90;;;;;;491603;240;1578;-73
2021/08/29 06:04:54;;;;;;;;;;;23.30;47.50;;;;;;491643;240;1182;-73
2021/08/29 06:06:55;;;;;;;;;;;23.30;47.50;;;;;;491543;240;1153;-73
2021/08/29 06:08:57;;;;;;;;;;;23.40;47.40;;;;;;491607;240;1031;-73
2021/08/29 06:10:58;;;;;;;;;;;23.70;47.00;;;;;;491624;240;1128;-73
2021/08/29 06:12:59;;;;;;;;;;;23.60;47.30;;;;;;491613;240;1060;-73
2021/08/29 06:15:01;;;;;;;;;;;23.30;47.70;;;;;;491610;240;1097;-73
2021/08/29 06:17:02;;;;;;;;;;;23.10;48.00;;;;;;491634;240;1080;-73
2021/08/29 06:19:03;;;;;;;;;;;23.40;47.80;;;;;;491646;240;2196;-73
2021/08/29 06:21:05;;;;;;;;;;;23.30;47.80;;;;;;491657;240;1145;-73
2021/08/29 06:23:06;;;;;;;;;;;23.00;48.40;;;;;;491567;240;1042;-73
2021/08/29 06:25:07;;;;;;;;;;;23.20;48.10;;;;;;491654;240;1016;-73
2021/08/29 06:27:09;;;;;;;;;;;23.50;47.50;;;;;;491569;240;1206;-73
2021/08/29 06:29:10;;;;;;;;;;;23.20;48.00;;;;;;491632;240;1178;-73
2021/08/29 06:31:11;;;;;;;;;;;23.30;48.50;;;;;;491588;240;1239;-73
2021/08/29 06:33:13;;;;;;;;;;;23.60;47.50;;;;;;491550;240;1040;-73
2021/08/29 06:35:14;;;;;;;;;;;23.60;47.80;;;;;;491598;240;1162;-73
2021/08/29 06:37:15;;;;;;;;;;;23.40;47.90;;;;;;491521;240;1158;-73
2021/08/29 06:39:17;;;;;;;;;;;23.50;47.50;;;;;;491545;240;2183;-73
2021/08/29 06:41:18;;;;;;;;;;;23.30;48.20;;;;;;491564;240;1276;-73
2021/08/29 06:43:19;;;;;;;;;;;23.30;48.40;;;;;;491592;240;1085;-73
2021/08/29 06:45:20;;;;;;;;;;;23.40;48.30;;;;;;491638;240;1052;-73
2021/08/29 06:47:22;;;;;;;;;;;23.00;48.80;;;;;;491584;240;1183;-73
2021/08/29 06:49:23;;;;;;;;;;;22.90;49.20;;;;;;491664;240;1132;-73
2021/08/29 06:51:25;;;;;;;;;;;23.00;48.80;;;;;;491565;240;1329;-73
2021/08/29 06:53:26;;;;;;;;;;;23.00;49.00;;;;;;491668;240;1205;-73
2021/08/29 06:55:27;;;;;;;;;;;23.00;48.90;;;;;;491676;240;1021;-73
2021/08/29 06:57:29;;;;;;;;;;;23.40;48.10;;;;;;491578;240;1073;-73
2021/08/29 06:59:30;;;;;;;;;;;23.70;47.80;;;;;;491553;240;2195;-73
2021/08/29 07:01:31;;;;;;;;;;;23.20;48.40;;;;;;491572;240;1296;-73
2021/08/29 07:03:33;;;;;;;;;;;23.50;48.10;;;;;;491542;240;1234;-73
2021/08/29 07:05:34;;;;;;;;;;;23.50;48.10;;;;;;491663;240;1197;-73
2021/08/29 07:07:35;;;;;;;;;;;23.60;47.60;;;;;;491578;240;1153;-73
2021/08/29 07:09:37;;;;;;;;;;;23.30;48.30;;;;;;491642;240;1005;-73
2021/08/29 07:11:38;;;;;;;;;;;23.60;47.60;;;;;;491540;240;1203;-73
2021/08/29 07:13:39;;;;;;;;;;;23.60;47.90;;;;;;491635;240;1115;-73
2021/08/29 07:15:41;;;;;;;;;;;23.80;47.80;;;;;;491597;240;1046;-73
2021/08/29 07:17:42;;;;;;;;;;;23.60;47.60;;;;;;491590;240;1180;-73
2021/08/29 07:19:43;;;;;;;;;;;23.60;47.80;;;;;;491633;240;2145;-73
2021/08/29 07:21:45;;;;;;;;;;;23.60;47.70;;;;;;491560;240;1224;-73
2021/08/29 07:23:46;;;;;;;;;;;23.70;47.60;;;;;;491656;240;1237;-73
2021/08/29 07:25:47;;;;;;;;;;;23.80;47.60;;;;;;491634;240;1237;-73
2021/08/29 07:27:49;;;;;;;;;;;24.00;47.30;;;;;;491665;240;1193;-73
2021/08/29 07:29:50;;;;;;;;;;;23.60;47.90;;;;;;491714;240;1082;-73
2021/08/29 07:31:52;;;;;;;;;;;23.40;48.20;;;;;;491649;240;1184;-73
2021/08/29 07:33:55;;;;;;;;;;;23.30;48.80;;;;;;491621;240;1096;-73
2021/08/29 07:35:54;;;;;;;;;;;23.50;48.20;;;;;;491664;240;1442;-73
2021/08/29 07:37:56;;;;;;;;;;;23.50;48.20;;;;;;491597;240;1124;-73
2021/08/29 07:39:57;;;;;;;;;;;23.80;47.70;;;;;;491610;240;2136;-73
2021/08/29 07:41:58;;;;;;;;;;;23.80;48.20;;;;;;491579;240;1082;-73
2021/08/29 07:44:00;;;;;;;;;;;23.90;48.10;;;;;;491567;240;1109;-73
2021/08/29 07:46:01;;;;;;;;;;;23.40;48.70;;;;;;491658;240;1260;-73
2021/08/29 07:48:02;;;;;;;;;;;23.10;49.20;;;;;;491529;240;1155;-73
2021/08/29 07:50:04;;;;;;;;;;;23.00;49.80;;;;;;491536;240;1102;-73
2021/08/29 07:52:05;;;;;;;;;;;23.20;49.70;;;;;;491606;240;1144;-73
2021/08/29 07:54:06;;;;;;;;;;;23.30;49.10;;;;;;491654;240;1133;-73
2021/08/29 07:56:08;;;;;;;;;;;23.40;48.60;;;;;;491698;240;1234;-73
2021/08/29 07:58:09;;;;;;;;;;;23.20;49.30;;;;;;491611;240;1134;-73
2021/08/29 08:00:10;;;;;;;;;;;23.30;49.60;;;;;;491637;240;2193;-73
2021/08/29 08:02:13;;;;;;;;;;;23.40;49.30;;;;;;491607;240;1141;-73
2021/08/29 08:04:13;;;;;;;;;;;23.80;48.80;;;;;;491661;240;1968;-73
2021/08/29 08:06:15;;;;;;;;;;;23.40;49.10;;;;;;491546;240;1204;-73
2021/08/29 08:08:16;;;;;;;;;;;23.50;48.90;;;;;;491646;240;1171;-73
2021/08/29 08:10:19;;;;;;;;;;;23.10;49.80;;;;;;491654;240;1002;-73
2021/08/29 08:12:19;;;;;;;;;;;23.70;48.70;;;;;;491531;240;1360;-73
2021/08/29 08:14:20;;;;;;;;;;;23.60;49.30;;;;;;491746;240;1026;-73
2021/08/29 08:16:21;;;;;;;;;;;23.20;49.80;;;;;;491473;240;1183;-73
2021/08/29 08:18:22;;;;;;;;;;;23.10;50.20;;;;;;491653;240;961;-73
2021/08/29 08:20:24;;;;;;;;;;;23.20;50.10;;;;;;491597;240;2192;-73
2021/08/29 08:22:25;;;;;;;;;;;23.20;50.00;;;;;;491577;240;1111;-73
2021/08/29 08:24:26;;;;;;;;;;;23.30;49.60;;;;;;491674;240;1056;-73
2021/08/29 08:26:28;;;;;;;;;;;23.30;49.70;;;;;;491569;240;1111;-73
2021/08/29 08:28:29;;;;;;;;;;;23.30;49.90;;;;;;491549;240;1185;-73
2021/08/29 08:30:30;;;;;;;;;;;23.20;50.20;;;;;;491530;240;1566;-73
2021/08/29 08:32:32;;;;;;;;;;;23.30;49.80;;;;;;491628;240;1216;-73
2021/08/29 08:34:33;;;;;;;;;;;23.50;49.60;;;;;;491639;240;949;-73
2021/08/29 08:36:35;;;;;;;;;;;23.40;49.40;;;;;;491614;240;1168;-73
2021/08/29 08:38:36;;;;;;;;;;;23.10;50.00;;;;;;491609;240;1056;-73
2021/08/29 08:40:37;;;;;;;;;;;23.30;49.40;;;;;;491596;240;2191;-72
2021/08/29 08:42:39;;;;;;;;;;;23.60;48.90;;;;;;491527;240;1170;-73
2021/08/29 08:44:40;;;;;;;;;;;23.40;49.20;;;;;;491677;240;978;-73
2021/08/29 08:46:41;;;;;;;;;;;23.70;49.00;;;;;;491623;240;1307;-73
2021/08/29 08:48:43;;;;;;;;;;;23.30;49.70;;;;;;491656;240;1179;-73
2021/08/29 08:50:44;;;;;;;;;;;23.30;50.00;;;;;;491624;240;1167;-73
2021/08/29 08:52:45;;;;;;;;;;;23.40;49.70;;;;;;491527;240;1185;-73
2021/08/29 08:54:47;;;;;;;;;;;23.90;48.90;;;;;;491616;240;1056;-73
2021/08/29 08:56:48;;;;;;;;;;;24.20;47.80;;;;;;491648;240;1032;-73
2021/08/29 08:58:49;;;;;;;;;;;24.30;47.50;;;;;;491570;240;1185;-73
2021/08/29 09:00:51;;;;;;;;;;;23.60;48.70;;;;;;491523;240;2144;-73
2021/08/29 09:02:52;;;;;;;;;;;23.40;49.50;;;;;;491577;240;1266;-73
2021/08/29 09:04:53;;;;;;;;;;;23.70;49.40;;;;;;491579;240;1004;-73
2021/08/29 09:06:55;;;;;;;;;;;23.50;49.50;;;;;;491511;240;1135;-73
2021/08/29 09:08:57;;;;;;;;;;;23.30;49.50;;;;;;491612;240;1098;-73
2021/08/29 09:10:58;;;;;;;;;;;23.30;50.00;;;;;;491591;240;1673;-73
2021/08/29 09:12:59;;;;;;;;;;;23.40;49.50;;;;;;491499;240;1159;-73
2021/08/29 09:15:00;;;;;;;;;;;23.30;49.70;;;;;;491622;240;993;-73
2021/08/29 09:17:02;;;;;;;;;;;23.20;50.10;;;;;;491561;240;1097;-73
2021/08/29 09:19:03;;;;;;;;;;;23.30;49.90;;;;;;491656;240;1026;-73
2021/08/29 09:21:04;;;;;;;;;;;23.60;49.60;;;;;;491684;240;2143;-73
2021/08/29 09:23:06;;;;;;;;;;;23.80;49.50;;;;;;491619;240;1150;-73
2021/08/29 09:25:07;;;;;;;;;;;23.30;50.20;;;;;;491601;240;1025;-73
2021/08/29 09:27:08;;;;;;;;;;;23.40;50.30;;;;;;491630;240;1237;-73
2021/08/29 09:29:10;;;;;;;;;;;23.40;49.90;;;;;;491601;240;986;-73
2021/08/29 09:31:11;;;;;;;;;;;23.30;50.40;;;;;;491551;240;1227;-73
2021/08/29 09:33:12;;;;;;;;;;;23.30;49.80;;;;;;491554;240;1119;-73
2021/08/29 09:35:13;;;;;;;;;;;23.10;50.90;;;;;;491684;240;978;-73
2021/08/29 09:37:15;;;;;;;;;;;23.30;50.20;;;;;;491466;240;1194;-73
2021/08/29 09:39:16;;;;;;;;;;;23.30;50.80;;;;;;491599;240;982;-73
2021/08/29 09:41:17;;;;;;;;;;;23.20;50.80;;;;;;491553;240;2148;-73
2021/08/29 09:43:19;;;;;;;;;;;23.00;50.80;;;;;;491631;240;1083;-73
2021/08/29 09:45:20;;;;;;;;;;;23.10;51.20;;;;;;491610;240;1015;-73
2021/08/29 09:47:21;;;;;;;;;;;23.20;50.60;;;;;;491487;240;1172;-73
2021/08/29 09:49:23;;;;;;;;;;;22.90;51.10;;;;;;491582;240;1013;-73
2021/08/29 09:51:24;;;;;;;;;;;23.40;50.10;;;;;;491575;240;1344;-73
2021/08/29 09:53:25;;;;;;;;;;;23.10;50.80;;;;;;491621;240;1083;-73
2021/08/29 09:55:27;;;;;;;;;;;23.30;50.60;;;;;;491632;240;1085;-73
2021/08/29 09:57:28;;;;;;;;;;;23.20;50.60;;;;;;491485;240;1075;-73
2021/08/29 09:59:29;;;;;;;;;;;22.90;51.00;;;;;;491597;240;1050;-73
2021/08/29 10:01:31;;;;;;;;;;;22.80;51.30;;;;;;491507;240;2187;-73
2021/08/29 10:03:32;;;;;;;;;;;23.20;50.60;;;;;;491591;240;1115;-73
2021/08/29 10:05:33;;;;;;;;;;;23.00;51.00;;;;;;491639;240;1052;-73
2021/08/29 10:07:35;;;;;;;;;;;22.80;51.70;;;;;;491484;240;1137;-73
2021/08/29 10:09:37;;;;;;;;;;;22.80;51.70;;;;;;491663;240;1116;-73
2021/08/29 10:11:38;;;;;;;;;;;23.20;51.30;;;;;;491573;240;1132;-73
2021/08/29 10:13:39;;;;;;;;;;;23.00;51.10;;;;;;491590;240;996;-73
2021/08/29 10:15:41;;;;;;;;;;;23.00;51.40;;;;;;491643;240;1058;-73
2021/08/29 10:17:42;;;;;;;;;;;23.10;51.00;;;;;;491572;240;1165;-73
2021/08/29 10:19:43;;;;;;;;;;;22.80;51.70;;;;;;491616;240;944;-73
2021/08/29 10:21:45;;;;;;;;;;;23.30;50.80;;;;;;491534;240;2191;-73
2021/08/29 10:23:46;;;;;;;;;;;23.10;51.50;;;;;;491517;240;963;-73
2021/08/29 10:25:48;;;;;;;;;;;23.30;51.20;;;;;;491555;240;1272;-73
2021/08/29 10:27:48;;;;;;;;;;;23.40;51.10;;;;;;491669;240;1474;-73
2021/08/29 10:29:50;;;;;;;;;;;23.20;51.00;;;;;;491596;240;950;-73
2021/08/29 10:31:51;;;;;;;;;;;22.90;51.90;;;;;;491527;240;1211;-73
2021/08/29 10:33:52;;;;;;;;;;;22.90;52.00;;;;;;491635;240;1046;-73
2021/08/29 10:35:54;;;;;;;;;;;23.30;51.10;;;;;;491573;240;1233;-73
2021/08/29 10:37:55;;;;;;;;;;;23.60;50.40;;;;;;491592;240;1389;-73
2021/08/29 10:39:57;;;;;;;;;;;22.90;51.50;;;;;;491595;240;1019;-73
2021/08/29 10:41:58;;;;;;;;;;;23.60;50.90;;;;;;491533;240;2117;-73
2021/08/29 10:43:59;;;;;;;;;;;23.40;51.00;;;;;;491590;240;1102;-73
2021/08/29 10:46:02;;;;;;;;;;;23.40;50.80;;;;;;491582;240;1172;-73
2021/08/29 10:48:02;;;;;;;;;;;23.20;51.40;;;;;;491645;240;1394;-73
2021/08/29 10:50:03;;;;;;;;;;;23.20;51.00;;;;;;491670;240;1045;-73
2021/08/29 10:52:05;;;;;;;;;;;23.00;51.80;;;;;;491481;240;1164;-73
2021/08/29 10:54:06;;;;;;;;;;;23.30;51.30;;;;;;491504;240;1036;-73
2021/08/29 10:56:07;;;;;;;;;;;23.20;51.60;;;;;;491517;240;1119;-73
2021/08/29 10:58:09;;;;;;;;;;;23.00;51.80;;;;;;491581;240;1067;-73
2021/08/29 11:00:11;;;;;;;;;;;23.20;52.00;;;;;;491636;240;1174;-73
2021/08/29 11:02:12;;;;;;;;;;;23.10;51.70;;;;;;491596;240;2173;-71
2021/08/29 11:04:13;;;;;;;;;;;23.10;51.70;;;;;;491584;240;1016;-70
2021/08/29 11:06:15;;;;;;;;;;;23.40;51.00;;;;;;491602;240;1186;-70
2021/08/29 11:08:16;;;;;;;;;;;23.40;51.10;;;;;;491550;240;1157;-70
2021/08/29 11:10:17;;;;;;;;;;;22.80;52.10;;;;;;491532;240;1034;-71
2021/08/29 11:12:19;;;;;;;;;;;23.10;51.90;;;;;;491493;240;1126;-70
2021/08/29 11:14:20;;;;;;;;;;;23.40;51.60;;;;;;491563;240;1061;-70
2021/08/29 11:16:21;;;;;;;;;;;23.30;51.80;;;;;;491616;240;1185;-70
2021/08/29 11:18:23;;;;;;;;;;;23.10;51.90;;;;;;491603;240;1061;-70
2021/08/29 11:20:24;;;;;;;;;;;23.10;51.70;;;;;;491617;240;2179;-71
2021/08/29 11:22:25;;;;;;;;;;;23.20;51.60;;;;;;491532;240;1418;-70
2021/08/29 11:24:26;;;;;;;;;;;23.00;52.20;;;;;;491566;240;1059;-73
2021/08/29 11:26:28;;;;;;;;;;;23.10;52.30;;;;;;491608;240;1222;-73
2021/08/29 11:28:31;;;;;;;;;;;22.80;52.60;;;;;;491624;240;1070;-73
2021/08/29 11:30:31;;;;;;;;;;;23.50;51.40;;;;;;491464;240;1274;-73
2021/08/29 11:32:32;;;;;;;;;;;23.20;51.70;;;;;;491565;240;1205;-73
2021/08/29 11:34:33;;;;;;;;;;;23.00;51.70;;;;;;491599;240;1031;-74
2021/08/29 11:36:35;;;;;;;;;;;22.90;52.10;;;;;;491603;240;1197;-73
2021/08/29 11:38:37;;;;;;;;;;;23.20;51.60;;;;;;491611;240;1148;-73
2021/08/29 11:40:37;;;;;;;;;;;23.10;52.10;;;;;;491562;240;2188;-73
2021/08/29 11:42:40;;;;;;;;;;;23.10;52.00;;;;;;491606;240;1067;-73
2021/08/29 11:44:40;;;;;;;;;;;23.10;52.10;;;;;;491581;240;1489;-73
2021/08/29 11:46:41;;;;;;;;;;;22.80;52.10;;;;;;491528;240;1127;-73
2021/08/29 11:48:43;;;;;;;;;;;22.70;52.60;;;;;;491599;240;1110;-73
2021/08/29 11:50:44;;;;;;;;;;;22.70;52.40;;;;;;491606;240;1316;-73
2021/08/29 11:52:46;;;;;;;;;;;22.70;52.40;;;;;;491502;240;1146;-73
2021/08/29 11:54:47;;;;;;;;;;;23.00;51.60;;;;;;491658;240;1400;-73
2021/08/29 11:56:48;;;;;;;;;;;23.20;51.20;;;;;;491539;240;1230;-73